sensor_id;sensor_type;location;lat;lon;timestamp;pressure;altitude;pressure_sealevel;temperature;humidity
62697;BME280;48761;42.680;23.312;2022-10-31T00:02:04;95304.88;;;16.22;46.69
62697;BME280;48761;42.680;23.312;2022-10-31T00:04:30;95313.66;;;16.24;46.45
62697;BME280;48761;42.680;23.312;2022-10-31T00:06:56;95308.47;;;16.11;46.73
62697;BME280;48761;42.680;23.312;2022-10-31T00:09:22;95307.38;;;16.14;46.62
62697;BME280;48761;42.680;23.312;2022-10-31T00:11:48;95304.94;;;16.11;46.72
62697;BME280;48761;42.680;23.312;2022-10-31T00:14:14;95310.75;;;16.16;46.76
62697;BME280;48761;42.680;23.312;2022-10-31T00:16:40;95310.75;;;16.16;46.82
62697;BME280;48761;42.680;23.312;2022-10-31T00:19:07;95310.03;;;16.14;47.06
62697;BME280;48761;42.680;23.312;2022-10-31T00:21:34;95310.91;;;16.03;47.04
62697;BME280;48761;42.680;23.312;2022-10-31T00:24:00;95311.56;;;16.07;47.16
62697;BME280;48761;42.680;23.312;2022-10-31T00:26:27;95291.19;;;16.04;47.10
62697;BME280;48761;42.680;23.312;2022-10-31T00:28:54;95303.81;;;16.13;47.18
62697;BME280;48761;42.680;23.312;2022-10-31T00:31:20;95297.75;;;16.11;47.18
62697;BME280;48761;42.680;23.312;2022-10-31T00:33:46;95303.41;;;15.97;47.68
62697;BME280;48761;42.680;23.312;2022-10-31T00:36:16;95296.94;;;15.99;47.67
62697;BME280;48761;42.680;23.312;2022-10-31T00:38:44;95301.31;;;16.00;47.81
62697;BME280;48761;42.680;23.312;2022-10-31T00:41:11;95302.25;;;16.11;47.67
62697;BME280;48761;42.680;23.312;2022-10-31T00:43:38;95302.69;;;15.95;47.71
62697;BME280;48761;42.680;23.312;2022-10-31T00:46:04;95300.03;;;15.95;47.95
62697;BME280;48761;42.680;23.312;2022-10-31T00:48:30;95289.75;;;16.00;47.82
62697;BME280;48761;42.680;23.312;2022-10-31T00:50:56;95244.97;;;15.69;47.88
62697;BME280;48761;42.680;23.312;2022-10-31T00:53:22;95297.44;;;16.05;47.90
62697;BME280;48761;42.680;23.312;2022-10-31T00:55:48;95284.03;;;15.93;47.91
62697;BME280;48761;42.680;23.312;2022-10-31T00:58:14;95298.03;;;15.75;48.40
62697;BME280;48761;42.680;23.312;2022-10-31T01:00:40;95300.91;;;15.84;48.39
62697;BME280;48761;42.680;23.312;2022-10-31T01:03:06;95289.28;;;15.73;48.55
62697;BME280;48761;42.680;23.312;2022-10-31T01:05:32;95303.66;;;15.72;48.76
62697;BME280;48761;42.680;23.312;2022-10-31T01:07:58;95305.34;;;15.73;48.62
62697;BME280;48761;42.680;23.312;2022-10-31T01:10:24;95301.47;;;15.66;48.70
62697;BME280;48761;42.680;23.312;2022-10-31T01:12:50;95300.84;;;15.74;48.87
62697;BME280;48761;42.680;23.312;2022-10-31T01:15:21;95286.34;;;15.76;48.65
62697;BME280;48761;42.680;23.312;2022-10-31T01:17:48;95310.13;;;15.91;48.58
62697;BME280;48761;42.680;23.312;2022-10-31T01:20:15;95309.50;;;15.99;48.31
62697;BME280;48761;42.680;23.312;2022-10-31T01:22:41;95311.38;;;15.87;48.42
62697;BME280;48761;42.680;23.312;2022-10-31T01:25:08;95300.78;;;15.85;48.32
62697;BME280;48761;42.680;23.312;2022-10-31T01:27:34;95314.78;;;15.89;48.67
62697;BME280;48761;42.680;23.312;2022-10-31T01:30:00;95317.94;;;15.94;48.56
62697;BME280;48761;42.680;23.312;2022-10-31T01:32:27;95314.53;;;15.92;48.60
62697;BME280;48761;42.680;23.312;2022-10-31T01:34:53;95293.13;;;15.80;48.68
62697;BME280;48761;42.680;23.312;2022-10-31T01:37:19;95322.69;;;15.90;48.73
62697;BME280;48761;42.680;23.312;2022-10-31T01:39:45;95323.16;;;15.96;48.69
62697;BME280;48761;42.680;23.312;2022-10-31T01:42:18;95315.63;;;15.89;48.91
62697;BME280;48761;42.680;23.312;2022-10-31T01:44:54;95307.00;;;15.86;49.02
62697;BME280;48761;42.680;23.312;2022-10-31T01:47:32;95315.38;;;15.93;49.01
62697;BME280;48761;42.680;23.312;2022-10-31T01:50:04;95321.56;;;15.93;49.32
62697;BME280;48761;42.680;23.312;2022-10-31T01:52:44;95316.75;;;15.87;49.54
62697;BME280;48761;42.680;23.312;2022-10-31T01:55:17;95306.03;;;15.87;49.47
62697;BME280;48761;42.680;23.312;2022-10-31T01:57:46;95314.53;;;15.92;49.67
62697;BME280;48761;42.680;23.312;2022-10-31T02:00:14;95315.38;;;15.93;49.76
62697;BME280;48761;42.680;23.312;2022-10-31T02:02:42;95304.91;;;15.89;49.71
62697;BME280;48761;42.680;23.312;2022-10-31T02:05:12;95309.63;;;15.97;49.67
62697;BME280;48761;42.680;23.312;2022-10-31T02:10:21;95305.25;;;15.96;49.88
62697;BME280;48761;42.680;23.312;2022-10-31T02:12:49;95290.53;;;15.90;50.20
62697;BME280;48761;42.680;23.312;2022-10-31T02:15:15;95314.00;;;15.98;50.22
62697;BME280;48761;42.680;23.312;2022-10-31T02:17:41;95305.84;;;16.00;50.32
62697;BME280;48761;42.680;23.312;2022-10-31T02:20:19;95300.97;;;16.05;50.35
62697;BME280;48761;42.680;23.312;2022-10-31T02:28:25;95318.72;;;15.85;51.16
62697;BME280;48761;42.680;23.312;2022-10-31T02:31:12;95325.91;;;15.84;51.27
62697;BME280;48761;42.680;23.312;2022-10-31T02:33:45;95319.22;;;15.78;51.64
62697;BME280;48761;42.680;23.312;2022-10-31T02:39:24;95319.53;;;15.64;52.12
62697;BME280;48761;42.680;23.312;2022-10-31T02:42:09;95336.06;;;15.69;51.98
62697;BME280;48761;42.680;23.312;2022-10-31T02:45:17;95326.16;;;15.48;51.93
62697;BME280;48761;42.680;23.312;2022-10-31T02:47:48;95347.41;;;14.71;53.54
62697;BME280;48761;42.680;23.312;2022-10-31T02:50:21;95343.47;;;14.29;54.41
62697;BME280;48761;42.680;23.312;2022-10-31T02:52:52;95341.81;;;13.92;55.62
62697;BME280;48761;42.680;23.312;2022-10-31T02:57:54;95346.50;;;13.76;55.95
62697;BME280;48761;42.680;23.312;2022-10-31T03:00:22;95346.53;;;13.88;55.67
62697;BME280;48761;42.680;23.312;2022-10-31T03:08:23;95348.22;;;13.89;55.51
62697;BME280;48761;42.680;23.312;2022-10-31T03:10:56;95353.34;;;13.92;55.44
62697;BME280;48761;42.680;23.312;2022-10-31T03:13:41;95349.53;;;14.08;55.11
62697;BME280;48761;42.680;23.312;2022-10-31T03:16:16;95354.66;;;14.22;54.76
62697;BME280;48761;42.680;23.312;2022-10-31T03:18:53;95349.59;;;14.42;54.39
62697;BME280;48761;42.680;23.312;2022-10-31T03:21:39;95353.34;;;14.51;54.18
62697;BME280;48761;42.680;23.312;2022-10-31T03:24:09;95345.34;;;14.63;53.81
62697;BME280;48761;42.680;23.312;2022-10-31T03:26:38;95362.63;;;14.70;53.75
62697;BME280;48761;42.680;23.312;2022-10-31T03:29:08;95355.94;;;14.76;54.05
62697;BME280;48761;42.680;23.312;2022-10-31T03:34:43;95355.81;;;14.77;53.67
62697;BME280;48761;42.680;23.312;2022-10-31T03:37:14;95359.09;;;14.81;53.56
62697;BME280;48761;42.680;23.312;2022-10-31T03:39:44;95367.84;;;14.83;53.57
62697;BME280;48761;42.680;23.312;2022-10-31T03:42:15;95366.13;;;14.82;53.55
62697;BME280;48761;42.680;23.312;2022-10-31T03:44:46;95373.22;;;14.83;53.46
62697;BME280;48761;42.680;23.312;2022-10-31T03:47:13;95363.69;;;14.79;53.51
62697;BME280;48761;42.680;23.312;2022-10-31T03:49:39;95378.34;;;14.86;53.52
62697;BME280;48761;42.680;23.312;2022-10-31T03:59:42;95384.53;;;14.87;53.66
62697;BME280;48761;42.680;23.312;2022-10-31T04:02:21;95375.50;;;14.76;53.90
62697;BME280;48761;42.680;23.312;2022-10-31T04:04:50;95380.00;;;14.76;54.12
62697;BME280;48761;42.680;23.312;2022-10-31T04:07:17;95340.97;;;14.50;54.14
62697;BME280;48761;42.680;23.312;2022-10-31T04:09:46;95381.69;;;14.77;54.18
62697;BME280;48761;42.680;23.312;2022-10-31T04:12:15;95390.94;;;14.84;53.99
62697;BME280;48761;42.680;23.312;2022-10-31T04:15:08;95391.69;;;14.75;54.23
62697;BME280;48761;42.680;23.312;2022-10-31T04:17:39;95386.56;;;14.72;54.37
62697;BME280;48761;42.680;23.312;2022-10-31T04:20:17;95366.00;;;14.49;54.91
62697;BME280;48761;42.680;23.312;2022-10-31T04:22:44;95378.53;;;14.60;54.79
62697;BME280;48761;42.680;23.312;2022-10-31T04:25:10;95393.88;;;14.70;54.90
62697;BME280;48761;42.680;23.312;2022-10-31T04:27:35;95390.94;;;14.61;55.25
62697;BME280;48761;42.680;23.312;2022-10-31T04:30:01;95398.50;;;14.56;55.63
62697;BME280;48761;42.680;23.312;2022-10-31T04:32:27;95391.16;;;14.46;56.20
62697;BME280;48761;42.680;23.312;2022-10-31T04:34:53;95391.16;;;14.46;56.05
62697;BME280;48761;42.680;23.312;2022-10-31T04:37:19;95391.16;;;14.46;56.07
62697;BME280;48761;42.680;23.312;2022-10-31T04:39:45;95369.13;;;14.31;55.92
62697;BME280;48761;42.680;23.312;2022-10-31T04:42:11;95395.09;;;14.65;55.52
62697;BME280;48761;42.680;23.312;2022-10-31T04:44:37;95395.34;;;14.74;55.51
62697;BME280;48761;42.680;23.312;2022-10-31T04:47:03;95393.41;;;14.76;55.37
62697;BME280;48761;42.680;23.312;2022-10-31T04:49:29;95388.41;;;14.71;55.51
62697;BME280;48761;42.680;23.312;2022-10-31T04:51:54;95383.88;;;14.60;55.39
62697;BME280;48761;42.680;23.312;2022-10-31T04:54:20;95405.31;;;14.83;55.68
62697;BME280;48761;42.680;23.312;2022-10-31T04:56:46;95396.03;;;14.64;55.97
62697;BME280;48761;42.680;23.312;2022-10-31T04:59:12;95406.09;;;14.38;56.57
62697;BME280;48761;42.680;23.312;2022-10-31T05:01:38;95408.53;;;14.41;56.72
62697;BME280;48761;42.680;23.312;2022-10-31T05:04:04;95417.59;;;14.15;57.49
62697;BME280;48761;42.680;23.312;2022-10-31T05:06:30;95404.38;;;14.00;57.60
62697;BME280;48761;42.680;23.312;2022-10-31T05:08:56;95397.06;;;13.91;58.07
62697;BME280;48761;42.680;23.312;2022-10-31T05:11:22;95414.84;;;14.04;57.96
62697;BME280;48761;42.680;23.312;2022-10-31T05:13:48;95404.94;;;14.17;57.70
62697;BME280;48761;42.680;23.312;2022-10-31T05:16:14;95415.75;;;14.63;56.83
62697;BME280;48761;42.680;23.312;2022-10-31T05:18:39;95417.28;;;14.90;56.20
62697;BME280;48761;42.680;23.312;2022-10-31T05:21:05;95395.88;;;14.90;56.11
62697;BME280;48761;42.680;23.312;2022-10-31T05:23:31;95425.81;;;15.19;55.38
62697;BME280;48761;42.680;23.312;2022-10-31T05:25:57;95435.28;;;15.11;55.39
62697;BME280;48761;42.680;23.312;2022-10-31T05:28:23;95434.31;;;15.01;55.52
62697;BME280;48761;42.680;23.312;2022-10-31T05:30:49;95433.03;;;14.82;56.02
62697;BME280;48761;42.680;23.312;2022-10-31T05:33:15;95425.31;;;14.43;56.95
62697;BME280;48761;42.680;23.312;2022-10-31T05:35:41;95394.03;;;14.20;56.75
62697;BME280;48761;42.680;23.312;2022-10-31T05:38:07;95448.25;;;14.34;57.05
62697;BME280;48761;42.680;23.312;2022-10-31T05:40:33;95447.94;;;14.14;57.78
62697;BME280;48761;42.680;23.312;2022-10-31T05:42:59;95448.81;;;14.15;57.83
62697;BME280;48761;42.680;23.312;2022-10-31T05:45:24;95444.84;;;14.32;57.20
62697;BME280;48761;42.680;23.312;2022-10-31T05:47:52;95453.19;;;14.52;56.87
62697;BME280;48761;42.680;23.312;2022-10-31T05:50:18;95447.72;;;14.53;57.14
62697;BME280;48761;42.680;23.312;2022-10-31T05:52:44;95449.59;;;14.76;56.74
62697;BME280;48761;42.680;23.312;2022-10-31T05:55:10;95448.53;;;14.90;57.27
62697;BME280;48761;42.680;23.312;2022-10-31T05:57:36;95456.31;;;15.51;56.08
62697;BME280;48761;42.680;23.312;2022-10-31T06:00:03;95449.97;;;15.75;55.42
62697;BME280;48761;42.680;23.312;2022-10-31T06:02:29;95457.56;;;15.91;54.30
62697;BME280;48761;42.680;23.312;2022-10-31T06:04:55;95463.88;;;16.01;53.26
62697;BME280;48761;42.680;23.312;2022-10-31T06:07:20;95450.16;;;15.95;53.10
62697;BME280;48761;42.680;23.312;2022-10-31T06:09:46;95462.41;;;16.20;53.02
62697;BME280;48761;42.680;23.312;2022-10-31T06:12:12;95465.38;;;16.60;52.01
62697;BME280;48761;42.680;23.312;2022-10-31T06:14:38;95467.53;;;16.66;51.45
62697;BME280;48761;42.680;23.312;2022-10-31T06:17:04;95470.22;;;16.66;51.33
62697;BME280;48761;42.680;23.312;2022-10-31T06:19:30;95447.03;;;16.87;50.64
62697;BME280;48761;42.680;23.312;2022-10-31T06:21:56;95477.13;;;17.12;50.27
62697;BME280;48761;42.680;23.312;2022-10-31T06:24:22;95486.53;;;17.18;49.88
62697;BME280;48761;42.680;23.312;2022-10-31T06:26:48;95486.03;;;17.12;50.10
62697;BME280;48761;42.680;23.312;2022-10-31T06:29:14;95474.38;;;17.02;49.68
62697;BME280;48761;42.680;23.312;2022-10-31T06:31:39;95499.63;;;16.89;50.38
62697;BME280;48761;42.680;23.312;2022-10-31T06:34:05;95501.38;;;16.57;50.63
62697;BME280;48761;42.680;23.312;2022-10-31T06:36:31;95492.94;;;16.62;50.67
62697;BME280;48761;42.680;23.312;2022-10-31T06:38:57;95496.28;;;16.76;50.48
62697;BME280;48761;42.680;23.312;2022-10-31T06:41:23;95498.56;;;17.02;49.85
62697;BME280;48761;42.680;23.312;2022-10-31T06:43:49;95503.69;;;16.62;50.78
62697;BME280;48761;42.680;23.312;2022-10-31T06:46:15;95481.59;;;16.37;50.66
62697;BME280;48761;42.680;23.312;2022-10-31T06:48:41;95497.44;;;17.05;49.50
62697;BME280;48761;42.680;23.312;2022-10-31T06:51:07;95496.88;;;17.01;49.72
62697;BME280;48761;42.680;23.312;2022-10-31T06:53:33;95496.88;;;17.01;49.63
62697;BME280;48761;42.680;23.312;2022-10-31T06:55:59;95501.31;;;17.33;48.83
62697;BME280;48761;42.680;23.312;2022-10-31T06:58:25;95484.69;;;16.97;49.34
62697;BME280;48761;42.680;23.312;2022-10-31T07:00:51;95504.25;;;17.30;49.06
62697;BME280;48761;42.680;23.312;2022-10-31T07:03:17;95507.50;;;17.24;48.97
62697;BME280;48761;42.680;23.312;2022-10-31T07:05:43;95499.56;;;17.22;49.07
62697;BME280;48761;42.680;23.312;2022-10-31T07:08:11;95512.69;;;17.16;49.43
62697;BME280;48761;42.680;23.312;2022-10-31T07:10:39;95499.81;;;17.19;49.49
62697;BME280;48761;42.680;23.312;2022-10-31T07:13:17;95498.88;;;17.30;49.19
62697;BME280;48761;42.680;23.312;2022-10-31T07:15:43;95506.88;;;17.93;48.00
62697;BME280;48761;42.680;23.312;2022-10-31T07:18:11;95504.59;;;18.30;47.06
62697;BME280;48761;42.680;23.312;2022-10-31T07:20:37;95504.16;;;18.64;46.65
62697;BME280;48761;42.680;23.312;2022-10-31T07:23:03;95460.22;;;18.14;47.13
62697;BME280;48761;42.680;23.312;2022-10-31T07:25:29;95492.25;;;18.67;46.79
62697;BME280;48761;42.680;23.312;2022-10-31T07:27:55;95436.19;;;18.22;46.94
62697;BME280;48761;42.680;23.312;2022-10-31T07:30:21;95471.00;;;18.64;46.42
62697;BME280;48761;42.680;23.312;2022-10-31T07:32:49;95484.03;;;18.88;46.50
62697;BME280;48761;42.680;23.312;2022-10-31T07:35:20;95482.72;;;19.02;46.06
62697;BME280;48761;42.680;23.312;2022-10-31T07:37:47;95489.00;;;19.51;45.01
62697;BME280;48761;42.680;23.312;2022-10-31T07:40:13;95481.13;;;19.20;45.86
62697;BME280;48761;42.680;23.312;2022-10-31T07:42:40;95485.69;;;19.19;45.66
62697;BME280;48761;42.680;23.312;2022-10-31T07:45:09;95460.19;;;18.93;46.04
62697;BME280;48761;42.680;23.312;2022-10-31T07:47:49;95474.00;;;19.38;45.67
62697;BME280;48761;42.680;23.312;2022-10-31T07:50:18;95483.69;;;19.31;46.18
62697;BME280;48761;42.680;23.312;2022-10-31T07:52:44;95468.00;;;19.45;45.27
62697;BME280;48761;42.680;23.312;2022-10-31T07:55:12;95460.81;;;19.35;45.65
62697;BME280;48761;42.680;23.312;2022-10-31T07:57:38;95477.75;;;19.18;45.94
62697;BME280;48761;42.680;23.312;2022-10-31T08:00:05;95475.72;;;19.30;45.88
62697;BME280;48761;42.680;23.312;2022-10-31T08:02:31;95480.59;;;19.82;44.92
62697;BME280;48761;42.680;23.312;2022-10-31T08:04:57;95468.19;;;20.18;44.26
62697;BME280;48761;42.680;23.312;2022-10-31T08:07:23;95485.78;;;20.59;43.71
62697;BME280;48761;42.680;23.312;2022-10-31T08:09:49;95476.69;;;20.60;43.38
62697;BME280;48761;42.680;23.312;2022-10-31T08:12:15;95469.28;;;20.25;43.61
62697;BME280;48761;42.680;23.312;2022-10-31T08:14:41;95485.19;;;19.72;44.87
62697;BME280;48761;42.680;23.312;2022-10-31T08:17:07;95486.91;;;19.73;44.93
62697;BME280;48761;42.680;23.312;2022-10-31T08:19:33;95491.44;;;19.73;44.95
62697;BME280;48761;42.680;23.312;2022-10-31T08:21:58;95479.19;;;19.50;45.24
62697;BME280;48761;42.680;23.312;2022-10-31T08:24:24;95497.78;;;19.53;45.40
62697;BME280;48761;42.680;23.312;2022-10-31T08:26:51;95483.34;;;20.01;44.86
62697;BME280;48761;42.680;23.312;2022-10-31T08:29:17;95493.38;;;19.80;44.91
62697;BME280;48761;42.680;23.312;2022-10-31T08:31:43;95476.84;;;19.65;45.17
62697;BME280;48761;42.680;23.312;2022-10-31T08:34:09;95468.75;;;19.65;44.89
62697;BME280;48761;42.680;23.312;2022-10-31T08:36:35;95480.50;;;19.74;45.08
62697;BME280;48761;42.680;23.312;2022-10-31T08:39:01;95470.84;;;20.00;44.87
62697;BME280;48761;42.680;23.312;2022-10-31T08:41:27;95472.47;;;20.39;44.17
62697;BME280;48761;42.680;23.312;2022-10-31T08:43:53;95470.28;;;20.43;43.85
62697;BME280;48761;42.680;23.312;2022-10-31T08:46:19;95474.53;;;20.45;44.22
62697;BME280;48761;42.680;23.312;2022-10-31T08:48:48;95474.69;;;20.80;43.70
62697;BME280;48761;42.680;23.312;2022-10-31T08:51:14;95470.53;;;21.13;43.18
62697;BME280;48761;42.680;23.312;2022-10-31T08:53:40;95454.81;;;21.43;42.63
62697;BME280;48761;42.680;23.312;2022-10-31T08:56:06;95476.69;;;21.58;42.27
62697;BME280;48761;42.680;23.312;2022-10-31T08:58:32;95444.03;;;21.52;42.24
62697;BME280;48761;42.680;23.312;2022-10-31T09:00:59;95458.25;;;21.54;41.80
62697;BME280;48761;42.680;23.312;2022-10-31T09:03:28;95483.78;;;21.51;42.20
62697;BME280;48761;42.680;23.312;2022-10-31T09:05:57;95472.50;;;21.99;42.01
62697;BME280;48761;42.680;23.312;2022-10-31T09:08:23;95467.66;;;22.36;41.26
62697;BME280;48761;42.680;23.312;2022-10-31T09:10:50;95481.69;;;22.23;41.35
62697;BME280;48761;42.680;23.312;2022-10-31T09:13:18;95471.53;;;22.17;41.01
62697;BME280;48761;42.680;23.312;2022-10-31T09:15:48;95466.66;;;22.54;40.89
62697;BME280;48761;42.680;23.312;2022-10-31T09:18:17;95461.13;;;22.89;40.06
62697;BME280;48761;42.680;23.312;2022-10-31T09:20:45;95463.81;;;22.89;40.03
62697;BME280;48761;42.680;23.312;2022-10-31T09:23:16;95458.72;;;22.44;40.49
62697;BME280;48761;42.680;23.312;2022-10-31T09:25:43;95463.44;;;22.34;40.70
62697;BME280;48761;42.680;23.312;2022-10-31T09:30:55;95458.41;;;22.89;40.25
62697;BME280;48761;42.680;23.312;2022-10-31T09:33:21;95455.84;;;22.96;40.00
62697;BME280;48761;42.680;23.312;2022-10-31T09:35:47;95460.72;;;23.26;39.62
62697;BME280;48761;42.680;23.312;2022-10-31T09:38:15;95460.34;;;23.37;38.94
62697;BME280;48761;42.680;23.312;2022-10-31T09:43:15;95464.41;;;23.42;39.23
62697;BME280;48761;42.680;23.312;2022-10-31T09:46:09;95457.31;;;23.32;38.96
62697;BME280;48761;42.680;23.312;2022-10-31T09:51:25;95463.88;;;23.46;39.01
62697;BME280;48761;42.680;23.312;2022-10-31T09:54:10;95458.78;;;23.60;38.88
62697;BME280;48761;42.680;23.312;2022-10-31T09:56:38;95455.34;;;23.74;38.16
62697;BME280;48761;42.680;23.312;2022-10-31T09:59:10;95460.94;;;23.81;38.33
62697;BME280;48761;42.680;23.312;2022-10-31T10:01:42;95452.72;;;23.90;37.57
62697;BME280;48761;42.680;23.312;2022-10-31T10:06:58;95443.22;;;23.94;38.07
62697;BME280;48761;42.680;23.312;2022-10-31T10:09:26;95433.16;;;24.03;38.00
62697;BME280;48761;42.680;23.312;2022-10-31T10:25:40;95426.09;;;24.17;36.24
62697;BME280;48761;42.680;23.312;2022-10-31T10:30:47;95400.56;;;24.35;35.94
62697;BME280;48761;42.680;23.312;2022-10-31T10:33:19;95410.25;;;24.52;35.43
62697;BME280;48761;42.680;23.312;2022-10-31T10:35:50;95375.84;;;23.98;35.97
62697;BME280;48761;42.680;23.312;2022-10-31T10:38:38;95393.66;;;24.24;36.07
62697;BME280;48761;42.680;23.312;2022-10-31T10:41:13;95391.69;;;24.41;35.99
62697;BME280;48761;42.680;23.312;2022-10-31T10:43:40;95374.78;;;24.31;35.64
62697;BME280;48761;42.680;23.312;2022-10-31T10:52:25;95379.22;;;24.32;35.74
62697;BME280;48761;42.680;23.312;2022-10-31T10:55:12;95378.06;;;24.17;35.47
62697;BME280;48761;42.680;23.312;2022-10-31T10:58:01;95385.22;;;24.18;35.15
62697;BME280;48761;42.680;23.312;2022-10-31T11:00:34;95388.47;;;24.14;35.39
62697;BME280;48761;42.680;23.312;2022-10-31T11:03:00;95381.00;;;24.16;35.59
62697;BME280;48761;42.680;23.312;2022-10-31T11:06:01;95383.50;;;24.17;35.35
62697;BME280;48761;42.680;23.312;2022-10-31T11:11:10;95375.06;;;24.12;35.89
62697;BME280;48761;42.680;23.312;2022-10-31T11:13:41;95376.88;;;23.96;35.55
62697;BME280;48761;42.680;23.312;2022-10-31T11:16:10;95378.16;;;23.77;36.15
62697;BME280;48761;42.680;23.312;2022-10-31T11:18:39;95374.88;;;23.58;36.37
62697;BME280;48761;42.680;23.312;2022-10-31T11:21:23;95374.81;;;23.67;35.85
62697;BME280;48761;42.680;23.312;2022-10-31T11:26:37;95358.22;;;23.61;36.64
62697;BME280;48761;42.680;23.312;2022-10-31T11:29:05;95364.44;;;23.79;36.32
62697;BME280;48761;42.680;23.312;2022-10-31T11:31:32;95365.25;;;23.79;35.75
62697;BME280;48761;42.680;23.312;2022-10-31T11:34:03;95321.31;;;23.52;35.88
62697;BME280;48761;42.680;23.312;2022-10-31T11:36:32;95349.25;;;23.93;36.45
62697;BME280;48761;42.680;23.312;2022-10-31T11:39:02;95338.03;;;23.96;36.09
62697;BME280;48761;42.680;23.312;2022-10-31T11:41:30;95343.47;;;23.96;35.79
62697;BME280;48761;42.680;23.312;2022-10-31T11:44:00;95333.72;;;23.78;35.61
62697;BME280;48761;42.680;23.312;2022-10-31T11:46:46;95335.31;;;23.96;35.88
62697;BME280;48761;42.680;23.312;2022-10-31T11:49:32;95335.38;;;23.88;36.02
62697;BME280;48761;42.680;23.312;2022-10-31T11:52:05;95331.03;;;23.78;35.98
62697;BME280;48761;42.680;23.312;2022-10-31T11:54:44;95336.28;;;23.71;35.96
62697;BME280;48761;42.680;23.312;2022-10-31T11:57:23;95331.88;;;23.79;35.87
62697;BME280;48761;42.680;23.312;2022-10-31T11:59:55;95328.06;;;23.56;35.88
62697;BME280;48761;42.680;23.312;2022-10-31T12:02:21;95336.91;;;23.58;35.95
62697;BME280;48761;42.680;23.312;2022-10-31T12:04:54;95319.91;;;23.65;36.07
62697;BME280;48761;42.680;23.312;2022-10-31T12:07:22;95324.03;;;23.52;36.09
62697;BME280;48761;42.680;23.312;2022-10-31T12:09:48;95324.97;;;23.68;35.73
62697;BME280;48761;42.680;23.312;2022-10-31T12:17:36;95325.75;;;23.53;35.73
62697;BME280;48761;42.680;23.312;2022-10-31T12:23:06;95323.38;;;23.50;36.51
62697;BME280;48761;42.680;23.312;2022-10-31T12:25:37;95327.13;;;23.40;36.61
62697;BME280;48761;42.680;23.312;2022-10-31T12:31:16;95324.44;;;23.32;36.89
62697;BME280;48761;42.680;23.312;2022-10-31T12:34:00;95320.03;;;23.31;36.12
62697;BME280;48761;42.680;23.312;2022-10-31T12:36:36;95320.03;;;23.31;36.53
62697;BME280;48761;42.680;23.312;2022-10-31T12:39:43;95316.34;;;23.24;36.77
62697;BME280;48761;42.680;23.312;2022-10-31T12:47:55;95325.13;;;23.26;36.72
62697;BME280;48761;42.680;23.312;2022-10-31T12:53:05;95314.34;;;23.17;36.99
62697;BME280;48761;42.680;23.312;2022-10-31T12:58:36;95317.06;;;23.17;36.99
62697;BME280;48761;42.680;23.312;2022-10-31T13:01:18;95324.56;;;23.07;38.06
62697;BME280;48761;42.680;23.312;2022-10-31T13:03:55;95321.16;;;23.05;37.17
62697;BME280;48761;42.680;23.312;2022-10-31T13:06:31;95318.06;;;23.16;37.29
62697;BME280;48761;42.680;23.312;2022-10-31T13:09:05;95315.59;;;22.98;37.06
62697;BME280;48761;42.680;23.312;2022-10-31T13:11:44;95313.06;;;22.97;38.25
62697;BME280;48761;42.680;23.312;2022-10-31T13:14:36;95314.38;;;23.01;37.81
62697;BME280;48761;42.680;23.312;2022-10-31T13:17:04;95305.91;;;23.04;37.52
62697;BME280;48761;42.680;23.312;2022-10-31T13:24:40;95316.22;;;23.09;37.29
62697;BME280;48761;42.680;23.312;2022-10-31T13:27:14;95317.44;;;23.06;37.48
62697;BME280;48761;42.680;23.312;2022-10-31T13:29:50;95290.72;;;22.86;37.52
62697;BME280;48761;42.680;23.312;2022-10-31T13:32:18;95308.28;;;23.07;37.40
62697;BME280;48761;42.680;23.312;2022-10-31T13:34:54;95310.31;;;23.05;39.17
62697;BME280;48761;42.680;23.312;2022-10-31T13:37:32;95309.94;;;23.08;38.20
62697;BME280;48761;42.680;23.312;2022-10-31T13:45:54;95299.50;;;23.05;37.46
62697;BME280;48761;42.680;23.312;2022-10-31T13:48:34;95311.44;;;23.19;38.35
62697;BME280;48761;42.680;23.312;2022-10-31T13:51:04;95311.22;;;23.29;39.21
62697;BME280;48761;42.680;23.312;2022-10-31T13:53:45;95300.72;;;23.26;38.88
62697;BME280;48761;42.680;23.312;2022-10-31T13:56:23;95316.66;;;23.29;38.71
62697;BME280;48761;42.680;23.312;2022-10-31T13:59:17;95309.72;;;23.26;41.84
62697;BME280;48761;42.680;23.312;2022-10-31T14:01:50;95315.69;;;23.22;40.48
62697;BME280;48761;42.680;23.312;2022-10-31T14:04:30;95303.16;;;23.21;43.50
62697;BME280;48761;42.680;23.312;2022-10-31T14:07:06;95307.66;;;23.28;41.45
62697;BME280;48761;42.680;23.312;2022-10-31T14:15:21;95319.25;;;23.14;42.70
62697;BME280;48761;42.680;23.312;2022-10-31T14:18:00;95318.28;;;23.06;40.24
62697;BME280;48761;42.680;23.312;2022-10-31T14:20:37;95326.72;;;23.12;41.73
62697;BME280;48761;42.680;23.312;2022-10-31T14:23:35;95331.16;;;23.13;40.76
62697;BME280;48761;42.680;23.312;2022-10-31T14:26:19;95327.25;;;23.07;44.67
62697;BME280;48761;42.680;23.312;2022-10-31T14:28:46;95322.53;;;23.01;44.96
62697;BME280;48761;42.680;23.312;2022-10-31T14:31:40;95328.63;;;23.03;41.33
62697;BME280;48761;42.680;23.312;2022-10-31T14:34:32;95337.06;;;23.08;45.16
62697;BME280;48761;42.680;23.312;2022-10-31T14:40:27;95334.34;;;23.08;40.80
62697;BME280;48761;42.680;23.312;2022-10-31T14:43:16;95334.41;;;23.00;40.19
62697;BME280;48761;42.680;23.312;2022-10-31T14:46:00;95326.09;;;22.93;39.59
62697;BME280;48761;42.680;23.312;2022-10-31T14:51:02;95330.38;;;22.87;39.86
62697;BME280;48761;42.680;23.312;2022-10-31T14:53:40;95323.97;;;22.80;41.31
62697;BME280;48761;42.680;23.312;2022-10-31T14:56:10;95308.22;;;22.50;39.39
62697;BME280;48761;42.680;23.312;2022-10-31T14:58:39;95327.69;;;22.54;39.94
62697;BME280;48761;42.680;23.312;2022-10-31T15:01:06;95317.56;;;22.31;39.00